createdAt,value
2018-05-02T00:00:19.540Z,2.05
2018-05-02T00:02:47.672Z,2.80
2018-05-02T00:05:16.675Z,1.77
2018-05-02T00:07:45.559Z,2.15
2018-05-02T00:10:13.690Z,2.85
2018-05-02T00:12:41.917Z,2.25
2018-05-02T00:15:10.917Z,2.63
2018-05-02T00:17:39.090Z,2.28
2018-05-02T00:20:07.257Z,2.05
2018-05-02T00:22:36.339Z,2.08
2018-05-02T00:25:05.259Z,2.58
2018-05-02T00:27:33.407Z,3.80
2018-05-02T00:30:02.331Z,2.15
2018-05-02T00:32:30.463Z,2.25
2018-05-02T00:34:59.406Z,2.10
2018-05-02T00:37:27.533Z,3.05
2018-05-02T00:39:56.429Z,3.20
2018-05-02T00:42:24.558Z,2.12
2018-05-02T00:44:52.734Z,2.10
2018-05-02T00:47:20.864Z,2.55
2018-05-02T00:49:49.107Z,2.05
2018-05-02T00:52:18.139Z,2.50
2018-05-02T00:54:46.265Z,3.55
2018-05-02T00:57:15.162Z,2.20
2018-05-02T00:59:44.060Z,2.30
2018-05-02T01:02:12.190Z,2.20
2018-05-02T01:04:40.315Z,2.20
2018-05-02T01:07:08.434Z,4.00
2018-05-02T01:09:36.633Z,2.62
2018-05-02T01:12:05.528Z,4.35
2018-05-02T01:14:34.430Z,2.20
2018-05-02T01:17:03.313Z,3.77
2018-05-02T01:19:31.467Z,3.15
2018-05-02T01:22:00.372Z,1.85
2018-05-02T01:24:29.258Z,4.20
2018-05-02T01:26:58.247Z,2.25
2018-05-02T01:29:27.154Z,2.70
2018-05-02T01:31:55.323Z,2.80
2018-05-02T01:34:23.433Z,2.00
2018-05-02T01:36:51.563Z,1.80
2018-05-02T01:39:19.672Z,3.47
2018-05-02T01:41:47.803Z,2.50
2018-05-02T01:44:15.960Z,2.20
2018-05-02T01:46:44.850Z,1.87
2018-05-02T01:49:23.740Z,1.85
2018-05-02T01:51:51.939Z,1.85
2018-05-02T01:54:20.826Z,1.87
2018-05-02T01:56:49.732Z,1.80
2018-05-02T01:59:18.628Z,1.60
2018-05-02T02:01:46.758Z,2.90
2018-05-02T02:04:14.919Z,2.15
2018-05-02T02:06:43.039Z,1.80
2018-05-02T02:09:11.164Z,1.77
2018-05-02T02:11:39.286Z,2.70
2018-05-02T02:14:07.416Z,2.65
2018-05-02T02:16:35.625Z,1.93
2018-05-02T02:19:03.791Z,2.05
2018-05-02T02:21:32.683Z,2.10
2018-05-02T02:24:01.577Z,1.73
2018-05-02T02:26:30.471Z,3.47
2018-05-02T02:28:58.651Z,1.77
2018-05-02T02:31:27.541Z,2.28
2018-05-02T02:33:55.688Z,2.25
2018-05-02T02:36:23.888Z,3.70
2018-05-02T02:38:51.990Z,2.20
2018-05-02T02:41:20.114Z,2.03
2018-05-02T02:43:48.233Z,1.60
2018-05-02T02:46:16.451Z,1.73
2018-05-02T02:48:45.339Z,1.85
2018-05-02T02:51:14.249Z,1.67
2018-05-02T02:53:42.367Z,1.60
2018-05-02T02:56:10.495Z,2.67
2018-05-02T02:58:38.611Z,1.65
2018-05-02T03:01:06.740Z,1.92
2018-05-02T03:03:34.878Z,6.30
2018-05-02T03:06:03.779Z,2.00
2018-05-02T03:08:31.906Z,1.60
2018-05-02T03:11:00.020Z,2.10
2018-05-02T03:13:28.899Z,2.55
2018-05-02T03:15:57.792Z,2.23
2018-05-02T03:18:26.688Z,3.87
2018-05-02T03:20:55.664Z,1.70
2018-05-02T03:23:24.556Z,3.97
2018-05-02T03:25:52.694Z,2.70
2018-05-02T03:28:20.902Z,1.65
2018-05-02T03:30:49.788Z,2.30
2018-05-02T03:33:18.687Z,1.90
2018-05-02T03:35:47.672Z,1.92
2018-05-02T03:38:16.572Z,3.05
2018-05-02T03:40:45.471Z,2.05
2018-05-02T03:43:13.599Z,2.00
2018-05-02T03:45:41.728Z,2.60
2018-05-02T03:48:09.855Z,1.90
2018-05-02T03:50:37.980Z,2.25
2018-05-02T03:53:06.145Z,1.62
2018-05-02T03:55:34.244Z,4.00
2018-05-02T03:58:02.462Z,3.37
2018-05-02T04:00:43.279Z,3.03
2018-05-02T04:03:23.249Z,4.12
2018-05-02T04:06:04.111Z,2.12
2018-05-02T04:08:32.319Z,1.98
2018-05-02T04:11:00.374Z,2.00
2018-05-02T04:13:29.295Z,2.12
2018-05-02T04:15:57.416Z,1.93
2018-05-02T04:18:25.622Z,1.92
2018-05-02T04:20:54.515Z,2.50
2018-05-02T04:23:23.411Z,2.42
2018-05-02T04:25:51.528Z,2.10
2018-05-02T04:28:19.651Z,2.65
2018-05-02T04:30:48.550Z,6.60
2018-05-02T04:33:16.684Z,2.10
2018-05-02T04:35:44.887Z,1.90
2018-05-02T04:38:13.023Z,2.12
2018-05-02T04:40:41.147Z,2.00
2018-05-02T04:43:09.315Z,2.55
2018-05-02T04:45:38.271Z,2.83
2018-05-02T04:48:07.284Z,2.78
2018-05-02T04:50:36.173Z,1.67
2018-05-02T04:53:05.147Z,2.28
2018-05-02T04:55:34.055Z,2.15
2018-05-02T04:58:02.311Z,1.83
2018-05-02T05:00:30.417Z,1.93
2018-05-02T05:02:58.551Z,1.60
2018-05-02T05:05:27.458Z,1.80
2018-05-02T05:07:56.358Z,1.62
2018-05-02T05:10:24.485Z,2.35
2018-05-02T05:12:52.627Z,2.60
2018-05-02T05:15:20.738Z,1.70
2018-05-02T05:17:49.631Z,5.57
2018-05-02T05:20:18.638Z,2.05
2018-05-02T05:22:47.546Z,2.50
2018-05-02T05:25:15.710Z,3.40
2018-05-02T05:27:43.856Z,2.40
2018-05-02T05:30:12.784Z,2.10
2018-05-02T05:32:40.912Z,2.33
2018-05-02T05:35:09.810Z,4.43
2018-05-02T05:37:38.819Z,2.80
2018-05-02T05:40:07.714Z,4.80
2018-05-02T05:42:36.598Z,3.28
2018-05-02T05:45:05.495Z,2.10
2018-05-02T05:47:33.640Z,2.40
2018-05-02T05:50:02.541Z,2.95
2018-05-02T05:52:30.698Z,4.80
2018-05-02T05:54:58.836Z,2.10
2018-05-02T05:57:27.079Z,1.95
2018-05-02T05:59:55.225Z,1.85
2018-05-02T06:02:24.208Z,2.42
2018-05-02T06:04:53.202Z,2.25
2018-05-02T06:07:22.200Z,2.53
2018-05-02T06:09:51.139Z,4.07
2018-05-02T06:12:19.252Z,3.08
2018-05-02T06:14:48.152Z,4.03
2018-05-02T06:17:17.039Z,4.30
2018-05-02T06:19:45.976Z,2.15
2018-05-02T06:22:14.109Z,2.45
2018-05-02T06:24:43.023Z,2.10
2018-05-02T06:27:11.155Z,2.50
2018-05-02T06:29:40.068Z,2.65
2018-05-02T06:32:09.038Z,2.28
2018-05-02T06:34:37.961Z,2.60
2018-05-02T06:37:06.110Z,2.42
2018-05-02T06:39:35.002Z,2.78
2018-05-02T06:42:03.174Z,3.45
2018-05-02T06:44:31.325Z,2.53
2018-05-02T06:46:59.524Z,2.87
2018-05-02T06:49:27.664Z,2.58
2018-05-02T06:51:55.788Z,3.35
2018-05-02T06:54:23.922Z,2.33
2018-05-02T06:56:53.200Z,5.15
2018-05-02T06:59:21.364Z,3.53
2018-05-02T07:01:49.463Z,2.60
2018-05-02T07:04:18.380Z,3.67
2018-05-02T07:06:46.508Z,4.47
2018-05-02T07:09:14.742Z,5.95
2018-05-02T07:11:42.851Z,4.00
2018-05-02T07:14:11.756Z,2.83
2018-05-02T07:16:40.662Z,3.43
2018-05-02T07:19:09.545Z,2.80
2018-05-02T07:21:38.450Z,3.37
2018-05-02T07:24:07.428Z,3.77
2018-05-02T07:26:35.495Z,2.70
2018-05-02T07:29:04.434Z,2.97
2018-05-02T07:31:32.558Z,3.30
2018-05-02T07:34:01.564Z,4.10
2018-05-02T07:36:29.684Z,2.73
2018-05-02T07:38:57.915Z,2.70
2018-05-02T07:41:26.095Z,7.17
2018-05-02T07:43:54.222Z,2.87
2018-05-02T07:46:22.510Z,3.30
2018-05-02T07:48:50.675Z,3.70
2018-05-02T07:51:18.798Z,3.20
2018-05-02T07:53:46.927Z,3.03
2018-05-02T07:56:15.819Z,2.83
2018-05-02T07:58:44.800Z,3.43
2018-05-02T08:01:13.804Z,5.40
2018-05-02T08:03:42.708Z,3.30
2018-05-02T08:06:10.893Z,4.57
2018-05-02T08:08:39.024Z,4.13
2018-05-02T08:11:08.080Z,7.27
2018-05-02T08:13:36.947Z,3.27
2018-05-02T08:16:05.056Z,6.47
2018-05-02T08:18:33.195Z,3.60
2018-05-02T08:21:01.436Z,2.90
2018-05-02T08:23:29.625Z,3.80
2018-05-02T08:25:57.775Z,5.53
2018-05-02T08:28:26.838Z,5.50
2018-05-02T08:30:55.763Z,3.50
2018-05-02T08:33:23.907Z,3.33
2018-05-02T08:35:52.099Z,4.90
2018-05-02T08:38:21.111Z,5.10
2018-05-02T08:40:49.271Z,10.80
2018-05-02T08:43:17.461Z,3.70
2018-05-02T08:45:45.613Z,3.37
2018-05-02T08:48:14.601Z,3.57
2018-05-02T08:50:43.518Z,4.77
2018-05-02T08:53:11.623Z,5.50
2018-05-02T08:55:39.807Z,6.30
2018-05-02T08:58:08.005Z,7.33
2018-05-02T09:00:37.108Z,5.97
2018-05-02T09:03:05.244Z,3.57
2018-05-02T09:05:33.371Z,3.17
2018-05-02T09:08:01.506Z,3.20
2018-05-02T09:10:30.411Z,3.73
2018-05-02T09:12:59.399Z,3.47
2018-05-02T09:15:27.630Z,5.63
2018-05-02T09:17:55.726Z,3.10
2018-05-02T09:20:24.967Z,4.40
2018-05-02T09:22:53.160Z,6.53
2018-05-02T09:25:21.287Z,3.43
2018-05-02T09:27:49.422Z,6.17
2018-05-02T09:30:17.648Z,4.20
2018-05-02T09:32:45.836Z,3.80
2018-05-02T09:35:13.975Z,3.83
2018-05-02T09:37:42.145Z,4.20
2018-05-02T09:40:11.132Z,3.60
2018-05-02T09:42:40.134Z,4.00
2018-05-02T09:45:09.051Z,6.07
2018-05-02T09:47:37.195Z,5.07
2018-05-02T09:50:06.313Z,3.90
2018-05-02T09:52:34.431Z,4.13
2018-05-02T09:55:02.547Z,4.03
2018-05-02T09:57:30.796Z,4.20
2018-05-02T09:59:59.680Z,6.63
2018-05-02T10:02:28.687Z,5.17
2018-05-02T10:04:57.591Z,5.63
2018-05-02T10:07:25.729Z,4.20
2018-05-02T10:09:54.651Z,4.57
2018-05-02T10:12:23.579Z,5.20
2018-05-02T10:14:51.651Z,5.10
2018-05-02T10:17:19.792Z,4.63
2018-05-02T10:19:47.917Z,6.40
2018-05-02T10:22:16.112Z,4.07
2018-05-02T10:24:44.279Z,9.10
2018-05-02T10:27:13.281Z,8.50
2018-05-02T10:29:41.457Z,6.23
2018-05-02T10:32:09.621Z,6.97
2018-05-02T10:34:37.795Z,5.97
2018-05-02T10:37:05.960Z,3.90
2018-05-02T10:39:34.841Z,7.43
2018-05-02T10:42:03.837Z,8.20
2018-05-02T10:44:32.740Z,4.83
2018-05-02T10:47:01.727Z,4.43
2018-05-02T10:49:30.672Z,5.27
2018-05-02T10:51:58.814Z,4.20
2018-05-02T10:54:26.944Z,6.27
2018-05-02T10:56:55.859Z,4.37
2018-05-02T10:59:24.724Z,4.87
2018-05-02T11:01:53.615Z,5.23
2018-05-02T11:04:22.527Z,5.53
2018-05-02T11:06:50.669Z,5.60
2018-05-02T11:09:18.776Z,6.10
2018-05-02T11:11:46.919Z,6.43
2018-05-02T11:14:15.813Z,4.70
2018-05-02T11:16:44.719Z,4.30
2018-05-02T11:19:12.963Z,4.40
2018-05-02T11:21:41.178Z,4.53
2018-05-02T11:24:09.309Z,4.83
2018-05-02T11:26:37.433Z,5.73
2018-05-02T11:29:05.676Z,5.17
2018-05-02T11:31:34.599Z,4.47
2018-05-02T11:34:02.731Z,6.07
2018-05-02T11:36:31.651Z,4.30
2018-05-02T11:38:59.771Z,4.83
2018-05-02T11:41:27.911Z,7.30
2018-05-02T11:43:56.039Z,5.37
2018-05-02T11:46:24.956Z,5.33
2018-05-02T11:48:53.084Z,11.52
2018-05-02T11:51:21.982Z,5.37
2018-05-02T11:53:50.922Z,14.60
2018-05-02T11:56:19.105Z,6.33
2018-05-02T11:58:47.208Z,6.13
2018-05-02T12:01:15.342Z,4.50
2018-05-02T12:03:43.463Z,5.87
2018-05-02T12:06:12.472Z,4.77
2018-05-02T12:08:40.620Z,12.10
2018-05-02T12:11:09.524Z,5.40
2018-05-02T12:13:38.448Z,6.70
2018-05-02T12:16:06.564Z,5.47
2018-05-02T12:18:34.726Z,5.67
2018-05-02T12:21:02.963Z,4.63
2018-05-02T12:23:31.200Z,7.07
2018-05-02T12:26:00.142Z,5.33
2018-05-02T12:28:28.274Z,5.40
2018-05-02T12:30:56.400Z,8.07
2018-05-02T12:33:24.582Z,5.40
2018-05-02T12:35:53.514Z,6.00
2018-05-02T12:38:21.665Z,6.33
2018-05-02T12:40:50.638Z,5.80
2018-05-02T12:43:18.839Z,8.70
2018-05-02T12:45:47.739Z,6.27
2018-05-02T12:48:15.874Z,5.63
2018-05-02T12:50:43.992Z,6.07
2018-05-02T12:53:12.141Z,7.87
2018-05-02T12:55:40.290Z,6.53
2018-05-02T12:58:08.463Z,6.50
2018-05-02T13:00:36.803Z,6.57
2018-05-02T13:03:04.935Z,6.87
2018-05-02T13:05:33.828Z,6.73
2018-05-02T13:08:02.013Z,10.60
2018-05-02T13:10:30.875Z,7.03
2018-05-02T13:12:59.795Z,6.47
2018-05-02T13:15:27.943Z,6.50
2018-05-02T13:17:56.132Z,13.07
2018-05-02T13:20:24.295Z,7.07
2018-05-02T13:22:53.177Z,7.90
2018-05-02T13:25:22.088Z,8.00
2018-05-02T13:27:50.224Z,7.00
2018-05-02T13:30:19.128Z,6.80
2018-05-02T13:32:48.112Z,9.37
2018-05-02T13:35:17.117Z,7.00
2018-05-02T13:37:46.025Z,6.93
2018-05-02T13:40:14.158Z,6.70
2018-05-02T13:42:42.313Z,8.30
2018-05-02T13:45:10.439Z,8.77
2018-05-02T13:47:38.619Z,6.17
2018-05-02T13:50:06.895Z,6.70
2018-05-02T13:52:35.024Z,7.80
2018-05-02T13:55:03.948Z,7.80
2018-05-02T13:57:32.075Z,6.13
2018-05-02T14:00:00.228Z,7.10
2018-05-02T14:02:28.383Z,7.73
2018-05-02T14:04:56.531Z,10.30
2018-05-02T14:07:24.666Z,8.03
2018-05-02T14:09:52.808Z,8.27
2018-05-02T14:12:20.939Z,10.70
2018-05-02T14:14:49.099Z,8.27
2018-05-02T14:17:17.291Z,9.23
2018-05-02T14:19:45.433Z,9.63
2018-05-02T14:22:14.446Z,9.37
2018-05-02T14:24:43.460Z,8.80
2018-05-02T14:27:11.618Z,8.53
2018-05-02T14:29:40.703Z,9.20
2018-05-02T14:32:08.835Z,7.43
2018-05-02T14:34:36.975Z,11.00
2018-05-02T14:37:05.238Z,7.10
2018-05-02T14:39:33.371Z,8.30
2018-05-02T14:42:03.350Z,7.40
2018-05-02T14:44:31.571Z,7.43
2018-05-02T14:47:00.468Z,10.10
2018-05-02T14:49:28.613Z,7.80
2018-05-02T14:51:56.725Z,6.90
2018-05-02T14:54:24.879Z,7.30
2018-05-02T14:56:53.041Z,6.90
2018-05-02T14:59:21.218Z,7.90
2018-05-02T15:01:50.107Z,7.80
2018-05-02T15:04:19.111Z,7.17
2018-05-02T15:06:47.212Z,7.10
2018-05-02T15:09:15.343Z,7.83
2018-05-02T15:11:44.331Z,8.83
2018-05-02T15:14:13.338Z,7.37
2018-05-02T15:16:42.323Z,6.80
2018-05-02T15:19:10.482Z,5.50
2018-05-02T15:21:39.389Z,7.00
2018-05-02T15:24:08.288Z,6.50
2018-05-02T15:26:36.441Z,7.40
2018-05-02T15:29:04.646Z,8.27
2018-05-02T15:31:32.780Z,5.77
2018-05-02T15:34:01.787Z,6.07
2018-05-02T15:36:30.778Z,9.67
2018-05-02T15:38:59.667Z,6.43
2018-05-02T15:41:27.818Z,7.30
2018-05-02T15:43:56.717Z,6.17
2018-05-02T15:46:25.681Z,7.80
2018-05-02T15:48:53.815Z,5.30
2018-05-02T15:51:21.960Z,5.83
2018-05-02T15:53:50.979Z,6.20
2018-05-02T15:56:19.185Z,6.60
2018-05-02T15:58:47.431Z,6.60
2018-05-02T16:01:15.589Z,6.83
2018-05-02T16:03:43.694Z,6.77
2018-05-02T16:06:11.863Z,5.97
2018-05-02T16:08:39.997Z,5.50
2018-05-02T16:11:08.161Z,5.70
2018-05-02T16:13:37.067Z,5.73
2018-05-02T16:16:05.353Z,6.90
2018-05-02T16:18:33.476Z,6.57
2018-05-02T16:21:01.635Z,6.67
2018-05-02T16:23:29.777Z,5.93
2018-05-02T16:25:57.928Z,6.00
2018-05-02T16:28:26.100Z,5.77
2018-05-02T16:30:54.283Z,5.10
2018-05-02T16:33:22.495Z,7.60
2018-05-02T16:35:51.358Z,5.20
2018-05-02T16:38:19.508Z,4.93
2018-05-02T16:40:47.637Z,4.83
2018-05-02T16:43:15.760Z,5.57
2018-05-02T16:45:43.956Z,6.97
2018-05-02T16:48:12.097Z,4.93
2018-05-02T16:50:40.249Z,4.60
2018-05-02T16:53:09.180Z,6.77
2018-05-02T16:55:37.312Z,4.60
2018-05-02T16:58:06.237Z,5.00
2018-05-02T17:00:34.415Z,3.73
2018-05-02T17:03:02.567Z,3.87
2018-05-02T17:05:30.818Z,4.73
2018-05-02T17:07:58.974Z,3.73
2018-05-02T17:10:27.929Z,8.40
2018-05-02T17:12:56.101Z,5.43
2018-05-02T17:15:24.468Z,8.13
2018-05-02T17:17:52.594Z,4.10
2018-05-02T17:20:21.476Z,4.20
2018-05-02T17:22:50.389Z,6.00
2018-05-02T17:25:18.535Z,5.63
2018-05-02T17:27:46.674Z,7.80
2018-05-02T17:30:14.814Z,3.77
2018-05-02T17:32:42.968Z,6.53
2018-05-02T17:35:12.054Z,6.20
2018-05-02T17:37:40.215Z,4.80
2018-05-02T17:40:08.373Z,4.10
2018-05-02T17:42:36.571Z,4.63
2018-05-02T17:45:05.469Z,4.13
2018-05-02T17:47:33.638Z,4.03
2018-05-02T17:50:01.746Z,3.77
2018-05-02T17:52:29.924Z,4.40
2018-05-02T17:54:58.055Z,5.90
2018-05-02T17:57:26.266Z,5.80
2018-05-02T17:59:54.520Z,5.27
2018-05-02T18:02:22.684Z,5.13
2018-05-02T18:04:50.816Z,4.93
2018-05-02T18:07:19.135Z,4.40
2018-05-02T18:09:47.326Z,6.20
2018-05-02T18:12:15.509Z,6.47
2018-05-02T18:14:43.671Z,5.60
2018-05-02T18:17:11.795Z,5.20
2018-05-02T18:19:40.710Z,5.83
2018-05-02T18:22:08.857Z,4.43
2018-05-02T18:24:37.781Z,4.57
2018-05-02T18:27:05.952Z,7.37
2018-05-02T18:29:34.081Z,6.00
2018-05-02T18:32:02.238Z,6.77
2018-05-02T18:34:30.370Z,7.87
2018-05-02T18:36:58.512Z,4.67
2018-05-02T18:39:26.668Z,6.00
2018-05-02T18:41:54.923Z,5.10
2018-05-02T18:44:23.082Z,5.10
2018-05-02T18:46:51.272Z,4.70
2018-05-02T18:49:19.409Z,7.03
2018-05-02T18:51:47.681Z,4.13
2018-05-02T18:54:16.094Z,5.23
2018-05-02T18:56:44.276Z,9.10
2018-05-02T18:59:12.515Z,6.30
2018-05-02T19:01:40.689Z,6.10
2018-05-02T19:04:08.825Z,6.10
2018-05-02T19:06:38.305Z,6.17
2018-05-02T19:09:06.447Z,9.97
2018-05-02T19:11:34.681Z,7.07
2018-05-02T19:14:02.862Z,6.93
2018-05-02T19:16:31.761Z,5.40
2018-05-02T19:19:05.686Z,11.60
2018-05-02T19:21:33.857Z,5.67
2018-05-02T19:24:02.098Z,6.13
2018-05-02T19:26:36.475Z,12.50
2018-05-02T19:29:04.697Z,6.37
2018-05-02T19:31:39.381Z,5.13
2018-05-02T19:34:07.560Z,5.23
2018-05-02T19:36:35.736Z,6.10
2018-05-02T19:39:03.978Z,6.47
2018-05-02T19:41:38.621Z,6.80
2018-05-02T19:44:07.736Z,6.50
2018-05-02T19:46:36.468Z,6.93
2018-05-02T19:49:04.638Z,6.33
2018-05-02T19:51:38.542Z,5.00
2018-05-02T19:54:06.757Z,6.90
2018-05-02T19:56:34.963Z,11.70
2018-05-02T19:59:03.911Z,11.83
2018-05-02T20:01:37.993Z,8.77
2018-05-02T20:04:06.150Z,8.83
2018-05-02T20:06:34.334Z,6.83
2018-05-02T20:12:20.254Z,27.30
2018-05-02T20:14:48.504Z,17.17
2018-05-02T20:17:16.729Z,13.60
2018-05-02T20:19:45.062Z,10.27
2018-05-02T20:22:13.189Z,6.70
2018-05-02T20:24:41.552Z,11.53
2018-05-02T20:27:09.740Z,7.77
2018-05-02T20:29:38.006Z,11.60
2018-05-02T20:32:06.153Z,10.97
2018-05-02T20:34:34.733Z,7.33
2018-05-02T20:37:02.913Z,6.10
2018-05-02T20:39:31.105Z,5.00
2018-05-02T20:41:59.284Z,4.60
2018-05-02T20:44:28.331Z,5.87
2018-05-02T20:46:56.456Z,5.30
2018-05-02T20:49:25.534Z,4.77
2018-05-02T20:51:53.651Z,5.37
2018-05-02T20:54:21.991Z,4.80
2018-05-02T20:56:50.053Z,4.67
2018-05-02T20:59:18.255Z,5.50
2018-05-02T21:01:46.414Z,6.03
2018-05-02T21:04:15.317Z,5.57
2018-05-02T21:06:43.472Z,7.90
2018-05-02T21:09:12.397Z,8.17
2018-05-02T21:11:40.554Z,6.55
2018-05-02T21:14:09.483Z,7.73
2018-05-02T21:16:37.630Z,6.70
2018-05-02T21:19:05.781Z,7.27
2018-05-02T21:21:35.462Z,5.60
2018-05-02T21:24:05.242Z,6.25
2018-05-02T21:26:33.383Z,5.70
2018-05-02T21:29:01.520Z,7.82
2018-05-02T21:31:29.731Z,5.90
2018-05-02T21:33:57.879Z,5.70
2018-05-02T21:36:26.791Z,6.13
2018-05-02T21:38:54.947Z,9.70
2018-05-02T21:41:23.078Z,6.27
2018-05-02T21:43:51.276Z,6.60
2018-05-02T21:46:20.274Z,7.77
2018-05-02T21:48:49.152Z,6.93
2018-05-02T21:51:18.056Z,6.80
2018-05-02T21:53:46.972Z,6.07
2018-05-02T21:56:15.276Z,9.32
2018-05-02T21:58:43.393Z,7.03
2018-05-02T22:01:11.541Z,6.80
2018-05-02T22:03:40.448Z,6.97
2018-05-02T22:06:08.585Z,6.17
2018-05-02T22:08:36.785Z,7.00
2018-05-02T22:11:05.675Z,6.37
2018-05-02T22:13:34.594Z,6.40
2018-05-02T22:16:02.730Z,7.23
2018-05-02T22:18:31.652Z,6.50
2018-05-02T22:20:59.919Z,8.35
2018-05-02T22:23:28.076Z,10.77
2018-05-02T22:25:56.967Z,8.40
2018-05-02T22:28:25.119Z,7.70
2018-05-02T22:30:53.263Z,7.73
2018-05-02T22:33:21.486Z,9.98
2018-05-02T22:35:50.346Z,7.83
2018-05-02T22:38:18.535Z,9.00
2018-05-02T22:40:47.545Z,8.35
2018-05-02T22:43:16.827Z,8.17
2018-05-02T22:45:45.726Z,9.97
2018-05-02T22:48:13.874Z,8.88
2018-05-02T22:50:42.000Z,7.72
2018-05-02T22:53:10.127Z,7.50
2018-05-02T22:55:39.023Z,6.93
2018-05-02T22:58:07.898Z,9.50
2018-05-02T23:00:36.798Z,7.10
2018-05-02T23:03:05.790Z,8.33
2018-05-02T23:05:34.690Z,7.80
2018-05-02T23:08:03.567Z,7.50
2018-05-02T23:10:32.568Z,8.03
2018-05-02T23:13:01.464Z,7.37
2018-05-02T23:15:30.337Z,7.27
2018-05-02T23:17:59.223Z,10.13
2018-05-02T23:20:28.216Z,7.60
2018-05-02T23:22:57.091Z,8.33
2018-05-02T23:25:25.226Z,7.90
2018-05-02T23:27:54.149Z,8.07
2018-05-02T23:30:23.804Z,7.10
2018-05-02T23:32:51.919Z,8.20
2018-05-02T23:35:21.559Z,7.57
2018-05-02T23:37:50.459Z,8.93
2018-05-02T23:40:18.614Z,7.20
2018-05-02T23:42:47.518Z,7.10
2018-05-02T23:45:15.642Z,7.47
2018-05-02T23:47:43.767Z,8.00
2018-05-02T23:50:11.914Z,8.50
2018-05-02T23:52:40.093Z,7.93
2018-05-02T23:55:09.098Z,7.63
2018-05-02T23:57:38.014Z,7.67
